KDMA/DMA METAR and TAF weather

Enter ICAO airport designator
Station Type Date Time Source
KDMA METAR 2019/08/24 19:58 UTC NOAA

KDMA 241958Z AUTO 30007KT 10SM FEW060 32/16 A3004 RMK AO2 SLP128 T03190158 $


Station Type Date Time Source
KDMA Decoded METAR 2019/08/24 19:58 UTC NOAA

Station name not available
Aug 24, 2019 - 03:58 PM EDT / 2019.08.24 1958 UTC
Wind: from the WNW (300 degrees) at 8 MPH (7 KT):0
Visibility: 10 mile(s):0
Sky conditions: mostly clear
Temperature: 89.4 F (31.9 C)
Dew Point: 60.4 F (15.8 C)
Relative Humidity: 37%
Pressure (altimeter): 30.04 in. Hg (1017 hPa)
ob: KDMA 241958Z AUTO 30007KT 10SM FEW060 32/16 A3004 RMK AO2 SLP128 T03190158
cycle: 20

Station Type Date Time Source
KDMA TAF 2019/08/24 14:19 UTC NOAA

TAF KDMA 241403Z 2414/2520 VRB05KT 9999 SCT050 QNH3009INS
BECMG 2416/2417 31005KT 9999 FEW060 QNH3003INS
BECMG 2420/2421 31012G18KT 9999 SCT120 QNH2998INS
TEMPO 2423/2503 VRB20G35KT 9000 TSRA BKN080CB
BECMG 2502/2503 15012KT 9999 NSW BKN070 QNH3001INS
BECMG 2516/2517 30008KT 9999 SCT060 QNH3003INS TX34/2424Z TN23/2511Z

Example: see airport list